createdAt,value
2019-01-11T00:00:32.305Z,99.90
2019-01-11T00:03:00.897Z,99.90
2019-01-11T00:05:29.501Z,99.90
2019-01-11T00:07:58.122Z,99.90
2019-01-11T00:10:26.579Z,99.90
2019-01-11T00:12:55.126Z,99.90
2019-01-11T00:15:23.656Z,99.90
2019-01-11T00:17:52.319Z,99.90
2019-01-11T00:20:21.002Z,99.90
2019-01-11T00:22:49.615Z,99.90
2019-01-11T00:25:18.217Z,99.90
2019-01-11T00:27:46.760Z,99.90
2019-01-11T00:30:15.646Z,99.90
2019-01-11T00:32:44.297Z,99.90
2019-01-11T00:35:12.756Z,99.90
2019-01-11T00:37:41.320Z,99.90
2019-01-11T00:40:09.878Z,99.90
2019-01-11T00:42:38.462Z,99.90
2019-01-11T00:45:09.751Z,99.90
2019-01-11T00:47:38.416Z,99.90
2019-01-11T00:50:08.909Z,99.90
2019-01-11T00:52:37.518Z,99.90
2019-01-11T00:55:08.391Z,99.90
2019-01-11T00:57:36.954Z,99.90
2019-01-11T01:00:17.662Z,99.90
2019-01-11T01:02:46.372Z,99.90
2019-01-11T01:05:15.071Z,99.90
2019-01-11T01:07:43.737Z,99.90
2019-01-11T01:10:12.304Z,99.90
2019-01-11T01:12:40.954Z,99.90
2019-01-11T01:15:11.702Z,99.90
2019-01-11T01:17:40.121Z,99.90
2019-01-11T01:20:16.738Z,99.90
2019-01-11T01:22:45.277Z,99.90
2019-01-11T01:25:13.734Z,99.90
2019-01-11T01:27:42.275Z,99.90
2019-01-11T01:30:16.919Z,99.90
2019-01-11T01:32:45.538Z,99.90
2019-01-11T01:35:14.080Z,99.90
2019-01-11T01:37:42.767Z,99.90
2019-01-11T01:40:13.899Z,99.90
2019-01-11T01:42:42.569Z,99.90
2019-01-11T01:45:16.577Z,99.90
2019-01-11T01:47:45.274Z,99.90
2019-01-11T01:50:13.949Z,99.90
2019-01-11T01:52:42.476Z,99.90
2019-01-11T01:55:13.261Z,99.90
2019-01-11T01:57:41.833Z,99.90
2019-01-11T02:00:13.616Z,99.90
2019-01-11T02:02:42.115Z,99.90
2019-01-11T02:05:10.913Z,99.90
2019-01-11T02:07:39.404Z,99.90
2019-01-11T02:10:10.844Z,99.90
2019-01-11T02:12:39.561Z,99.90
2019-01-11T02:15:09.717Z,99.90
2019-01-11T02:17:38.360Z,99.90
2019-01-11T02:20:10.262Z,99.90
2019-01-11T02:22:38.799Z,99.90
2019-01-11T02:25:08.057Z,99.90
2019-01-11T02:27:36.620Z,99.90
2019-01-11T02:30:08.501Z,99.90
2019-01-11T02:32:37.308Z,99.90
2019-01-11T02:35:05.853Z,99.90
2019-01-11T02:37:34.582Z,99.90
2019-01-11T02:40:03.662Z,99.90
2019-01-11T02:42:32.317Z,99.90
2019-01-11T02:45:00.948Z,99.90
2019-01-11T02:47:29.425Z,99.90
2019-01-11T02:49:58.170Z,99.90
2019-01-11T02:52:26.758Z,99.90
2019-01-11T02:54:55.259Z,99.90
2019-01-11T02:57:23.786Z,99.90
2019-01-11T02:59:52.398Z,99.90
2019-01-11T03:02:20.913Z,99.90
2019-01-11T03:04:49.790Z,99.90
2019-01-11T03:07:18.216Z,99.90
2019-01-11T03:09:46.931Z,99.90
2019-01-11T03:12:15.495Z,99.90
2019-01-11T03:14:44.066Z,99.90
2019-01-11T03:17:12.777Z,99.90
2019-01-11T03:19:47.726Z,99.90
2019-01-11T03:22:11.653Z,99.90
2019-01-11T03:24:40.241Z,99.90
2019-01-11T03:27:08.734Z,99.90
2019-01-11T03:29:37.293Z,99.90
2019-01-11T03:32:05.863Z,99.90
2019-01-11T03:34:36.198Z,99.90
2019-01-11T03:37:04.780Z,99.90
2019-01-11T03:39:33.383Z,99.90
2019-01-11T03:42:03.530Z,99.90
2019-01-11T03:44:31.994Z,99.90
2019-01-11T03:47:00.511Z,99.90
2019-01-11T03:49:29.157Z,99.90
2019-01-11T03:51:57.855Z,99.90
2019-01-11T03:54:26.377Z,99.90
2019-01-11T03:56:55.023Z,99.90
2019-01-11T03:59:23.581Z,99.90
2019-01-11T04:01:52.136Z,99.90
2019-01-11T04:04:20.762Z,99.90
2019-01-11T04:06:49.324Z,99.90
2019-01-11T04:09:17.920Z,99.90
2019-01-11T04:11:46.537Z,99.90
2019-01-11T04:14:15.260Z,99.90
2019-01-11T04:16:43.830Z,99.90
2019-01-11T04:19:12.454Z,99.90
2019-01-11T04:21:42.653Z,99.90
2019-01-11T04:24:11.236Z,99.90
2019-01-11T04:26:39.882Z,99.90
2019-01-11T04:29:08.441Z,99.90
2019-01-11T04:31:36.958Z,99.90
2019-01-11T04:34:05.621Z,99.90
2019-01-11T04:36:34.290Z,99.90
2019-01-11T04:39:04.127Z,99.90
2019-01-11T04:41:32.719Z,99.90
2019-01-11T04:44:01.339Z,99.90
2019-01-11T04:46:29.879Z,99.90
2019-01-11T04:48:58.414Z,99.90
2019-01-11T04:51:26.853Z,99.90
2019-01-11T04:53:55.460Z,99.90
2019-01-11T04:56:24.097Z,99.90
2019-01-11T04:58:52.737Z,99.90
2019-01-11T05:01:21.274Z,99.90
2019-01-11T05:03:49.854Z,99.90
2019-01-11T05:06:18.331Z,99.90
2019-01-11T05:08:47.106Z,99.90
2019-01-11T05:11:15.624Z,99.90
2019-01-11T05:13:44.171Z,99.90
2019-01-11T05:16:12.594Z,99.90
2019-01-11T05:18:41.320Z,99.90
2019-01-11T05:21:09.829Z,99.90
2019-01-11T05:23:38.409Z,99.90
2019-01-11T05:26:07.110Z,99.90
2019-01-11T05:28:35.770Z,99.90
2019-01-11T05:31:04.568Z,99.90
2019-01-11T05:33:33.147Z,99.90
2019-01-11T05:36:01.566Z,99.90
2019-01-11T05:38:30.043Z,99.90
2019-01-11T05:40:58.619Z,99.90
2019-01-11T05:43:27.358Z,99.90
2019-01-11T05:45:55.982Z,99.90
2019-01-11T05:48:24.623Z,99.90
2019-01-11T05:50:53.052Z,99.90
2019-01-11T05:53:21.549Z,99.90
2019-01-11T05:55:50.081Z,99.90
2019-01-11T05:58:22.994Z,99.90
2019-01-11T06:00:51.532Z,99.90
2019-01-11T06:03:20.230Z,99.90
2019-01-11T06:05:48.722Z,99.90
2019-01-11T06:08:18.897Z,99.90
2019-01-11T06:10:47.639Z,99.90
2019-01-11T06:13:16.078Z,99.90
2019-01-11T06:15:44.724Z,99.90
2019-01-11T06:18:13.671Z,99.90
2019-01-11T06:20:42.441Z,99.90
2019-01-11T06:23:11.038Z,99.90
2019-01-11T06:25:39.654Z,99.90
2019-01-11T06:28:08.157Z,99.90
2019-01-11T06:30:36.959Z,99.90
2019-01-11T06:33:05.558Z,99.90
2019-01-11T06:35:35.389Z,99.90
2019-01-11T06:38:03.965Z,99.90
2019-01-11T06:40:32.575Z,99.90
2019-01-11T06:43:03.663Z,99.90
2019-01-11T06:45:31.316Z,99.90
2019-01-11T06:47:59.957Z,99.90
2019-01-11T06:50:28.560Z,99.90
2019-01-11T06:52:57.178Z,99.90
2019-01-11T06:55:25.763Z,99.90
2019-01-11T06:57:54.436Z,99.90
2019-01-11T07:00:22.995Z,99.90
2019-01-11T07:02:51.733Z,99.90
2019-01-11T07:05:20.154Z,99.90
2019-01-11T07:07:48.611Z,99.90
2019-01-11T07:10:19.704Z,99.90
2019-01-11T07:12:48.243Z,99.90
2019-01-11T07:15:16.778Z,99.90
2019-01-11T07:17:45.360Z,99.90
2019-01-11T07:20:14.906Z,99.90
2019-01-11T07:22:43.538Z,99.90
2019-01-11T07:25:13.968Z,99.90
2019-01-11T07:27:44.014Z,99.90
2019-01-11T07:30:14.693Z,99.90
2019-01-11T07:32:43.284Z,99.90
2019-01-11T07:35:11.805Z,99.90
2019-01-11T07:37:40.419Z,99.90
2019-01-11T07:40:12.952Z,99.90
2019-01-11T07:42:41.413Z,99.90
2019-01-11T07:45:11.897Z,99.90
2019-01-11T07:47:40.421Z,99.90
2019-01-11T07:50:10.049Z,99.90
2019-01-11T07:52:38.506Z,99.40
2019-01-11T07:55:09.369Z,99.40
2019-01-11T07:57:37.840Z,99.40
2019-01-11T08:00:09.373Z,99.40
2019-01-11T08:02:37.993Z,99.60
2019-01-11T08:05:06.955Z,99.50
2019-01-11T08:07:35.610Z,99.70
2019-01-11T08:10:07.488Z,99.10
2019-01-11T08:12:36.184Z,99.10
2019-01-11T08:15:07.707Z,98.20
2019-01-11T08:17:36.338Z,97.90
2019-01-11T08:20:06.552Z,96.60
2019-01-11T08:22:36.689Z,95.80
2019-01-11T08:25:06.626Z,92.10
2019-01-11T08:27:35.203Z,92.10
2019-01-11T08:30:05.021Z,88.80
2019-01-11T08:32:33.536Z,87.10
2019-01-11T08:35:03.784Z,84.60
2019-01-11T08:37:32.785Z,80.80
2019-01-11T08:40:01.543Z,71.20
2019-01-11T08:42:30.002Z,66.50
2019-01-11T08:45:00.029Z,58.90
2019-01-11T08:47:28.624Z,58.30
2019-01-11T08:49:57.175Z,54.80
2019-01-11T08:52:25.713Z,50.50
2019-01-11T08:54:54.488Z,52.60
2019-01-11T08:57:23.130Z,51.50
2019-01-11T08:59:51.595Z,46.20
2019-01-11T09:02:20.189Z,45.80
2019-01-11T09:04:48.936Z,43.00
2019-01-11T09:07:17.597Z,40.20
2019-01-11T09:09:46.149Z,38.60
2019-01-11T09:12:14.714Z,38.20
2019-01-11T09:14:47.933Z,37.80
2019-01-11T09:17:16.853Z,37.50
2019-01-11T09:19:46.016Z,37.60
2019-01-11T09:22:14.844Z,35.00
2019-01-11T09:24:43.550Z,36.00
2019-01-11T09:27:12.344Z,33.00
2019-01-11T09:29:40.822Z,32.00
2019-01-11T09:32:09.518Z,29.80
2019-01-11T09:34:38.148Z,29.80
2019-01-11T09:37:07.152Z,28.10
2019-01-11T09:39:36.097Z,28.20
2019-01-11T09:42:04.742Z,28.70
2019-01-11T09:44:33.314Z,28.80
2019-01-11T09:47:01.860Z,28.20
2019-01-11T09:49:30.415Z,30.10
2019-01-11T09:51:59.040Z,29.70
2019-01-11T09:54:27.657Z,31.50
2019-01-11T09:56:56.076Z,31.70
2019-01-11T09:59:24.650Z,34.00
2019-01-11T10:01:55.046Z,34.70
2019-01-11T10:04:25.242Z,35.60
2019-01-11T10:06:55.625Z,36.80
2019-01-11T10:09:24.470Z,35.00
2019-01-11T10:11:53.065Z,35.70
2019-01-11T10:14:21.616Z,31.90
2019-01-11T10:16:50.692Z,34.70
2019-01-11T10:19:19.276Z,31.70
2019-01-11T10:21:47.847Z,32.50
2019-01-11T10:24:16.591Z,30.70
2019-01-11T10:26:45.109Z,29.50
2019-01-11T10:29:13.659Z,28.80
2019-01-11T10:31:42.360Z,28.60
2019-01-11T10:34:10.921Z,28.50
2019-01-11T10:36:39.615Z,27.80
2019-01-11T10:39:08.179Z,27.80
2019-01-11T10:41:36.729Z,26.50
2019-01-11T10:44:05.287Z,26.30
2019-01-11T10:46:35.773Z,26.00
2019-01-11T10:49:04.330Z,24.80
2019-01-11T10:51:32.941Z,23.70
2019-01-11T10:54:01.532Z,22.30
2019-01-11T10:56:30.072Z,22.70
2019-01-11T10:58:58.590Z,21.20
2019-01-11T11:01:27.230Z,21.20
2019-01-11T11:03:55.745Z,21.50
2019-01-11T11:06:24.392Z,22.40
2019-01-11T11:08:52.925Z,23.30
2019-01-11T11:11:21.464Z,24.20
2019-01-11T11:13:49.925Z,25.40
2019-01-11T11:16:18.559Z,27.80
2019-01-11T11:18:47.034Z,28.90
2019-01-11T11:21:15.548Z,29.40
2019-01-11T11:23:44.151Z,28.20
2019-01-11T11:26:12.600Z,28.90
2019-01-11T11:28:41.087Z,30.00
2019-01-11T11:31:09.604Z,32.50
2019-01-11T11:33:38.081Z,34.80
2019-01-11T11:36:06.708Z,37.70
2019-01-11T11:38:35.394Z,40.20
2019-01-11T11:41:03.835Z,40.70
2019-01-11T11:43:33.272Z,41.40
2019-01-11T11:46:01.889Z,42.20
2019-01-11T11:48:30.554Z,45.00
2019-01-11T11:50:59.131Z,46.00
2019-01-11T11:53:27.758Z,48.20
2019-01-11T11:55:56.370Z,49.50
2019-01-11T11:58:25.127Z,50.20
2019-01-11T12:00:53.706Z,51.80
2019-01-11T12:03:22.360Z,52.10
2019-01-11T12:05:51.454Z,52.20
2019-01-11T12:08:20.371Z,54.50
2019-01-11T12:10:49.028Z,54.80
2019-01-11T12:13:17.671Z,54.70
2019-01-11T12:15:46.308Z,55.50
2019-01-11T12:18:14.793Z,57.60
2019-01-11T12:20:43.390Z,59.40
2019-01-11T12:23:12.051Z,61.70
2019-01-11T12:25:40.705Z,62.10
2019-01-11T12:28:09.500Z,64.90
2019-01-11T12:30:37.970Z,64.50
2019-01-11T12:33:06.515Z,65.40
2019-01-11T12:35:35.054Z,66.40
2019-01-11T12:38:03.683Z,67.30
2019-01-11T12:40:33.258Z,68.70
2019-01-11T12:43:01.678Z,69.40
2019-01-11T12:45:30.458Z,70.20
2019-01-11T12:47:59.079Z,70.20
2019-01-11T12:50:27.609Z,70.70
2019-01-11T12:52:56.305Z,70.70
2019-01-11T12:55:24.863Z,71.50
2019-01-11T12:57:53.474Z,71.50
2019-01-11T13:00:22.165Z,71.90
2019-01-11T13:02:50.951Z,70.50
2019-01-11T13:05:20.149Z,70.00
2019-01-11T13:07:48.812Z,70.40
2019-01-11T13:10:18.879Z,68.90
2019-01-11T13:12:47.684Z,66.60
2019-01-11T13:15:18.941Z,66.90
2019-01-11T13:17:47.408Z,66.90
2019-01-11T13:20:17.681Z,61.20
2019-01-11T13:22:46.488Z,53.70
2019-01-11T13:25:14.972Z,52.10
2019-01-11T13:27:43.428Z,51.70
2019-01-11T13:30:14.212Z,52.10
2019-01-11T13:32:42.978Z,48.90
2019-01-11T13:35:11.485Z,48.40
2019-01-11T13:37:40.272Z,49.80
2019-01-11T13:40:12.071Z,52.60
2019-01-11T13:42:40.544Z,57.10
2019-01-11T13:45:09.402Z,60.20
2019-01-11T13:47:37.964Z,63.40
2019-01-11T13:50:10.280Z,69.00
2019-01-11T13:52:38.805Z,71.60
2019-01-11T13:55:07.690Z,74.00
2019-01-11T13:57:36.407Z,75.70
2019-01-11T14:00:08.411Z,77.90
2019-01-11T14:02:36.986Z,79.50
2019-01-11T14:05:06.062Z,80.60
2019-01-11T14:07:34.798Z,81.80
2019-01-11T14:10:03.311Z,82.90
2019-01-11T14:12:32.181Z,82.90
2019-01-11T14:15:01.024Z,83.00
2019-01-11T14:17:29.465Z,82.90
2019-01-11T14:19:58.029Z,82.60
2019-01-11T14:22:26.782Z,83.40
2019-01-11T14:24:55.317Z,83.90
2019-01-11T14:27:23.756Z,84.80
2019-01-11T14:29:52.360Z,85.20
2019-01-11T14:32:20.863Z,85.50
2019-01-11T14:34:49.363Z,86.20
2019-01-11T14:37:17.884Z,87.40
2019-01-11T14:39:46.547Z,87.20
2019-01-11T14:42:15.066Z,87.90
2019-01-11T14:44:43.747Z,87.60
2019-01-11T14:47:12.309Z,88.20
2019-01-11T14:49:41.046Z,88.00
2019-01-11T14:52:09.714Z,88.40
2019-01-11T14:54:38.227Z,88.00
2019-01-11T14:57:06.706Z,88.60
2019-01-11T14:59:35.975Z,89.90
2019-01-11T15:02:04.727Z,90.00
2019-01-11T15:04:33.216Z,90.10
2019-01-11T15:07:01.712Z,90.10
2019-01-11T15:09:30.310Z,90.10
2019-01-11T15:11:58.857Z,90.20
2019-01-11T15:14:27.420Z,90.50
2019-01-11T15:16:55.964Z,90.80
2019-01-11T15:19:24.521Z,91.10
2019-01-11T15:21:53.076Z,91.40
2019-01-11T15:24:21.948Z,91.50
2019-01-11T15:26:50.495Z,91.70
2019-01-11T15:29:19.199Z,92.20
2019-01-11T15:31:47.708Z,92.30
2019-01-11T15:34:16.508Z,92.40
2019-01-11T15:36:45.698Z,92.90
2019-01-11T15:39:14.157Z,93.00
2019-01-11T15:41:42.962Z,93.10
2019-01-11T15:44:11.812Z,93.50
2019-01-11T15:46:40.256Z,93.90
2019-01-11T15:49:08.931Z,94.50
2019-01-11T15:51:37.880Z,94.90
2019-01-11T15:54:06.604Z,95.00
2019-01-11T15:56:35.401Z,95.50
2019-01-11T15:59:04.007Z,95.90
2019-01-11T16:01:32.466Z,96.60
2019-01-11T16:04:03.531Z,96.90
2019-01-11T16:06:32.356Z,97.30
2019-01-11T16:09:04.726Z,97.40
2019-01-11T16:11:43.701Z,97.60
2019-01-11T16:14:33.577Z,98.10
2019-01-11T16:17:05.800Z,98.30
2019-01-11T16:19:34.332Z,98.30
2019-01-11T16:22:04.526Z,98.60
2019-01-11T16:24:33.558Z,99.00
2019-01-11T16:27:02.160Z,98.90
2019-01-11T16:29:30.723Z,99.20
2019-01-11T16:31:59.555Z,99.40
2019-01-11T16:34:28.386Z,99.50
2019-01-11T16:36:57.950Z,99.70
2019-01-11T16:39:26.420Z,99.90
2019-01-11T16:41:55.286Z,99.90
2019-01-11T16:44:24.091Z,99.90
2019-01-11T16:46:52.728Z,99.90
2019-01-11T16:49:22.792Z,99.90
2019-01-11T16:51:51.376Z,99.90
2019-01-11T16:54:19.899Z,99.90
2019-01-11T16:56:48.696Z,99.90
2019-01-11T16:59:17.205Z,99.90
2019-01-11T17:01:45.695Z,99.90
2019-01-11T17:04:14.298Z,99.90
2019-01-11T17:06:42.784Z,99.90
2019-01-11T17:09:11.471Z,99.90
2019-01-11T17:11:40.169Z,99.90
2019-01-11T17:14:08.821Z,99.90
2019-01-11T17:16:37.896Z,99.90
2019-01-11T17:19:06.663Z,99.90
2019-01-11T17:21:35.244Z,99.90
2019-01-11T17:24:03.955Z,99.90
2019-01-11T17:26:32.595Z,99.90
2019-01-11T17:29:01.087Z,99.90
2019-01-11T17:31:29.844Z,99.90
2019-01-11T17:33:58.807Z,99.90
2019-01-11T17:36:27.505Z,99.90
2019-01-11T17:38:55.970Z,99.90
2019-01-11T17:41:24.402Z,99.90
2019-01-11T17:43:52.877Z,99.90
2019-01-11T17:46:21.518Z,99.90
2019-01-11T17:48:50.068Z,99.90
2019-01-11T17:51:18.531Z,99.90
2019-01-11T17:53:47.176Z,99.90
2019-01-11T17:56:16.098Z,99.90
2019-01-11T17:58:44.744Z,99.90
2019-01-11T18:01:13.320Z,99.90
2019-01-11T18:03:42.118Z,99.90
2019-01-11T18:06:10.992Z,99.90
2019-01-11T18:08:39.858Z,99.90
2019-01-11T18:11:08.479Z,99.90
2019-01-11T18:13:36.986Z,99.90
2019-01-11T18:16:05.764Z,99.90
2019-01-11T18:18:34.215Z,99.90
2019-01-11T18:21:02.828Z,99.90
2019-01-11T18:23:31.425Z,99.90
2019-01-11T18:25:59.905Z,99.90
2019-01-11T18:28:28.466Z,99.90
2019-01-11T18:30:56.956Z,99.90
2019-01-11T18:33:25.431Z,99.90
2019-01-11T18:35:54.014Z,99.90
2019-01-11T18:38:22.545Z,99.90
2019-01-11T18:40:51.060Z,99.90
2019-01-11T18:43:19.491Z,99.90
2019-01-11T18:45:48.113Z,99.90
2019-01-11T18:48:16.717Z,99.90
2019-01-11T18:50:45.433Z,99.90
2019-01-11T18:53:14.169Z,99.90
2019-01-11T18:55:42.766Z,99.90
2019-01-11T18:58:11.252Z,99.90
2019-01-11T19:00:39.874Z,99.90
2019-01-11T19:03:08.359Z,99.90
2019-01-11T19:05:36.845Z,99.90
2019-01-11T19:08:05.398Z,99.90
2019-01-11T19:10:33.912Z,99.90
2019-01-11T19:13:02.531Z,99.90
2019-01-11T19:15:31.163Z,99.90
2019-01-11T19:17:59.720Z,99.90
2019-01-11T19:20:28.794Z,99.90
2019-01-11T19:22:57.248Z,99.90
2019-01-11T19:25:25.901Z,99.90
2019-01-11T19:27:54.421Z,99.90
2019-01-11T19:30:27.089Z,99.90
2019-01-11T19:32:56.818Z,99.90
2019-01-11T19:35:26.530Z,99.90
2019-01-11T19:37:55.204Z,99.90
2019-01-11T19:40:24.312Z,99.90
2019-01-11T19:42:52.906Z,99.90
2019-01-11T19:45:21.470Z,99.90
2019-01-11T19:47:50.059Z,99.90
2019-01-11T19:50:20.887Z,99.90
2019-01-11T19:52:50.321Z,99.90
2019-01-11T19:55:19.100Z,99.90
2019-01-11T19:57:48.123Z,99.90
2019-01-11T20:00:19.886Z,99.90
2019-01-11T20:02:48.674Z,99.90
2019-01-11T20:05:17.500Z,99.90
2019-01-11T20:07:46.598Z,99.90
2019-01-11T20:10:18.367Z,99.90
2019-01-11T20:12:47.087Z,99.90
2019-01-11T20:15:15.815Z,99.90
2019-01-11T20:17:44.637Z,99.90
2019-01-11T20:20:14.721Z,99.90
2019-01-11T20:22:43.543Z,99.90
2019-01-11T20:25:21.027Z,99.90
2019-01-11T20:27:49.614Z,99.90
2019-01-11T20:30:23.433Z,99.90
2019-01-11T20:32:52.365Z,99.90
2019-01-11T20:35:21.076Z,99.90
2019-01-11T20:37:49.696Z,99.90
2019-01-11T20:40:18.304Z,99.90
2019-01-11T20:42:46.822Z,99.90
2019-01-11T20:45:18.353Z,99.90
2019-01-11T20:47:47.033Z,99.90
2019-01-11T20:50:17.716Z,99.90
2019-01-11T20:52:46.342Z,99.90
2019-01-11T20:55:14.948Z,99.90
2019-01-11T20:57:44.866Z,99.90
2019-01-11T21:00:17.191Z,99.90
2019-01-11T21:02:46.065Z,99.90
2019-01-11T21:05:15.575Z,99.90
2019-01-11T21:07:44.653Z,99.90
2019-01-11T21:10:14.750Z,99.90
2019-01-11T21:12:43.592Z,99.90
2019-01-11T21:15:15.368Z,99.90
2019-01-11T21:17:44.004Z,99.90
2019-01-11T21:20:15.092Z,99.90
2019-01-11T21:22:44.043Z,99.90
2019-01-11T21:25:14.570Z,99.90
2019-01-11T21:27:43.157Z,99.90
2019-01-11T21:30:20.327Z,99.90
2019-01-11T21:32:48.980Z,99.90
2019-01-11T21:35:17.664Z,99.90
2019-01-11T21:37:46.365Z,99.90
2019-01-11T21:40:16.886Z,99.90
2019-01-11T21:42:46.021Z,99.90
2019-01-11T21:45:14.808Z,99.90
2019-01-11T21:47:43.385Z,99.90
2019-01-11T21:50:17.649Z,99.90
2019-01-11T21:52:46.244Z,99.90
2019-01-11T21:55:15.058Z,99.90
2019-01-11T21:57:44.234Z,99.90
2019-01-11T22:00:19.534Z,99.90
2019-01-11T22:02:48.208Z,99.90
2019-01-11T22:05:17.030Z,99.90
2019-01-11T22:07:45.982Z,99.90
2019-01-11T22:10:16.158Z,99.90
2019-01-11T22:12:45.052Z,99.90
2019-01-11T22:15:16.098Z,99.90
2019-01-11T22:17:44.930Z,99.90
2019-01-11T22:20:18.755Z,99.90
2019-01-11T22:22:47.317Z,99.90
2019-01-11T22:25:16.686Z,99.90
2019-01-11T22:27:45.395Z,99.90
2019-01-11T22:30:16.594Z,99.90
2019-01-11T22:32:45.400Z,99.90
2019-01-11T22:35:14.714Z,99.90
2019-01-11T22:37:44.028Z,99.90
2019-01-11T22:40:15.035Z,99.90
2019-01-11T22:42:43.707Z,99.90
2019-01-11T22:45:15.913Z,99.90
2019-01-11T22:47:44.660Z,99.90
2019-01-11T22:50:15.227Z,99.90
2019-01-11T22:52:43.713Z,99.90
2019-01-11T22:55:15.409Z,99.90
2019-01-11T22:57:44.027Z,99.90
2019-01-11T23:00:26.554Z,99.90
2019-01-11T23:02:58.476Z,99.90
2019-01-11T23:05:27.361Z,99.90
2019-01-11T23:07:56.888Z,99.90
2019-01-11T23:10:52.161Z,99.90
2019-01-11T23:13:20.894Z,99.90
2019-01-11T23:15:50.470Z,99.90
2019-01-11T23:18:19.185Z,99.90
2019-01-11T23:20:47.941Z,99.90
2019-01-11T23:23:16.663Z,99.90
2019-01-11T23:25:45.561Z,99.90
2019-01-11T23:28:14.269Z,99.90
2019-01-11T23:30:42.801Z,99.90
2019-01-11T23:33:11.455Z,99.90
2019-01-11T23:35:40.624Z,99.90
2019-01-11T23:38:09.139Z,99.90
2019-01-11T23:40:37.809Z,99.90
2019-01-11T23:43:06.405Z,99.90
2019-01-11T23:45:34.983Z,99.90
2019-01-11T23:48:03.494Z,99.90
2019-01-11T23:50:33.035Z,99.90
2019-01-11T23:53:02.088Z,99.90
2019-01-11T23:55:30.661Z,99.90
2019-01-11T23:57:59.210Z,99.90
